createdAt,value
2022-12-22T00:02:19.150Z,1.55
2022-12-22T00:05:06.377Z,1.85
2022-12-22T00:07:51.643Z,1.80
2022-12-22T00:10:37.161Z,1.67
2022-12-22T00:16:09.045Z,1.60
2022-12-22T00:18:54.099Z,1.70
2022-12-22T00:21:38.890Z,1.67
2022-12-22T00:24:24.441Z,1.70
2022-12-22T00:29:57.806Z,1.50
2022-12-22T00:32:46.623Z,1.55
2022-12-22T00:35:33.679Z,1.55
2022-12-22T00:38:18.481Z,1.58
2022-12-22T00:41:03.464Z,1.85
2022-12-22T00:43:48.265Z,1.52
2022-12-22T00:46:37.108Z,1.58
2022-12-22T00:49:22.035Z,1.60
2022-12-22T00:52:07.301Z,1.58
2022-12-22T00:54:52.164Z,1.50
2022-12-22T00:57:40.136Z,2.03
2022-12-22T01:00:34.615Z,1.90
2022-12-22T01:03:19.847Z,1.38
2022-12-22T01:08:51.057Z,1.80
2022-12-22T01:11:35.899Z,1.45
2022-12-22T01:14:21.192Z,1.50
2022-12-22T01:17:05.929Z,1.63
2022-12-22T01:19:50.613Z,1.50
2022-12-22T01:22:39.585Z,1.40
2022-12-22T01:25:31.006Z,1.20
2022-12-22T01:28:16.365Z,1.50
2022-12-22T01:31:02.368Z,1.77
2022-12-22T01:33:47.727Z,1.00
2022-12-22T01:36:32.758Z,1.10
2022-12-22T01:39:17.519Z,0.95
2022-12-22T01:42:03.455Z,1.00
2022-12-22T01:44:48.457Z,1.00
2022-12-22T01:47:48.529Z,0.93
2022-12-22T01:50:49.317Z,0.85
2022-12-22T01:53:38.483Z,0.93
2022-12-22T01:56:23.720Z,0.75
2022-12-22T01:59:13.441Z,0.95
2022-12-22T02:04:26.349Z,0.90
2022-12-22T02:07:15.998Z,1.00
2022-12-22T02:10:27.969Z,1.02
2022-12-22T02:13:37.294Z,0.80
2022-12-22T02:16:48.880Z,0.80
2022-12-22T02:20:04.302Z,0.70
2022-12-22T02:23:46.989Z,0.80
2022-12-22T02:26:39.935Z,0.73
2022-12-22T02:29:25.796Z,0.88
2022-12-22T02:32:11.071Z,0.90
2022-12-22T02:34:57.341Z,1.00
2022-12-22T02:37:51.424Z,0.77
2022-12-22T02:40:50.242Z,0.90
2022-12-22T02:43:41.017Z,0.80
2022-12-22T02:46:42.329Z,0.80
2022-12-22T02:49:33.514Z,0.80
2022-12-22T02:52:30.921Z,0.77
2022-12-22T02:55:16.603Z,0.90
2022-12-22T02:58:01.469Z,0.98
2022-12-22T03:00:46.674Z,0.98
2022-12-22T03:03:32.088Z,0.90
2022-12-22T03:06:17.256Z,1.00
2022-12-22T03:09:02.211Z,1.00
2022-12-22T03:11:46.993Z,1.08
2022-12-22T03:14:31.680Z,0.95
2022-12-22T03:17:16.501Z,0.70
2022-12-22T03:20:01.307Z,1.25
2022-12-22T03:22:47.768Z,0.80
2022-12-22T03:25:32.956Z,0.80
2022-12-22T03:28:07.662Z,1.30
2022-12-22T03:30:34.207Z,0.88
2022-12-22T03:33:00.635Z,1.40
2022-12-22T03:35:27.834Z,1.10
2022-12-22T03:37:54.213Z,1.17
2022-12-22T03:40:20.648Z,1.50
2022-12-22T03:43:05.715Z,1.00
2022-12-22T03:45:50.425Z,1.17
2022-12-22T03:48:16.879Z,1.73
2022-12-22T03:50:44.555Z,1.20
2022-12-22T03:53:10.951Z,1.10
2022-12-22T03:55:37.288Z,0.95
2022-12-22T03:58:03.705Z,1.00
2022-12-22T04:00:30.422Z,0.80
2022-12-22T04:02:58.770Z,1.00
2022-12-22T04:05:26.464Z,0.73
2022-12-22T04:07:52.973Z,0.75
2022-12-22T04:10:38.151Z,0.85
2022-12-22T04:13:04.585Z,0.70
2022-12-22T04:15:32.487Z,0.70
2022-12-22T04:17:59.558Z,0.65
2022-12-22T04:20:26.995Z,0.70
2022-12-22T04:22:56.628Z,0.68
2022-12-22T04:25:23.847Z,0.73
2022-12-22T04:27:50.212Z,0.60
2022-12-22T04:30:17.215Z,0.85
2022-12-22T04:32:43.840Z,0.75
2022-12-22T04:35:10.650Z,1.42
2022-12-22T04:37:37.471Z,0.70
2022-12-22T04:40:04.977Z,0.70
2022-12-22T04:42:31.391Z,0.70
2022-12-22T04:44:57.931Z,0.68
2022-12-22T04:47:24.390Z,0.80
2022-12-22T04:49:50.797Z,0.60
2022-12-22T04:52:17.223Z,0.88
2022-12-22T04:54:43.680Z,0.77
2022-12-22T04:57:10.100Z,0.70
2022-12-22T04:59:36.544Z,0.98
2022-12-22T05:02:03.151Z,0.98
2022-12-22T05:04:29.646Z,0.65
2022-12-22T05:06:56.153Z,0.70
2022-12-22T05:09:22.563Z,0.80
2022-12-22T05:11:49.005Z,0.80
2022-12-22T05:14:15.601Z,0.70
2022-12-22T05:16:42.071Z,0.70
2022-12-22T05:19:08.542Z,0.70
2022-12-22T05:21:35.021Z,0.70
2022-12-22T05:24:01.563Z,0.50
2022-12-22T05:26:28.173Z,0.68
2022-12-22T05:28:54.616Z,0.60
2022-12-22T05:31:23.264Z,0.65
2022-12-22T05:33:50.260Z,0.70
2022-12-22T05:36:16.974Z,0.77
2022-12-22T05:38:44.692Z,0.60
2022-12-22T05:41:11.361Z,1.08
2022-12-22T05:43:38.521Z,0.65
2022-12-22T05:46:07.556Z,0.60
2022-12-22T05:48:38.474Z,0.57
2022-12-22T05:51:07.693Z,1.02
2022-12-22T05:53:34.326Z,0.70
2022-12-22T05:56:00.803Z,0.60
2022-12-22T05:58:27.299Z,0.77
2022-12-22T06:00:57.636Z,0.75
2022-12-22T06:03:26.190Z,0.90
2022-12-22T06:05:52.997Z,0.60
2022-12-22T06:08:19.602Z,0.70
2022-12-22T06:10:46.049Z,0.60
2022-12-22T06:13:12.463Z,0.65
2022-12-22T06:15:38.965Z,0.73
2022-12-22T06:18:06.166Z,0.75
2022-12-22T06:20:32.675Z,0.60
2022-12-22T06:22:59.117Z,0.68
2022-12-22T06:25:25.467Z,0.70
2022-12-22T06:27:51.861Z,0.75
2022-12-22T06:30:18.322Z,0.60
2022-12-22T06:32:44.764Z,0.60
2022-12-22T06:35:11.406Z,0.60
2022-12-22T06:37:37.878Z,0.68
2022-12-22T06:40:04.970Z,0.68
2022-12-22T06:42:49.907Z,0.60
2022-12-22T06:45:16.485Z,0.70
2022-12-22T06:47:42.902Z,0.40
2022-12-22T06:50:09.810Z,0.50
2022-12-22T06:52:36.237Z,0.50
2022-12-22T06:55:03.439Z,0.60
2022-12-22T06:57:29.870Z,0.60
2022-12-22T06:59:57.771Z,0.70
2022-12-22T07:02:25.053Z,1.05
2022-12-22T07:04:51.738Z,0.50
2022-12-22T07:07:18.217Z,0.52
2022-12-22T07:09:44.605Z,0.50
2022-12-22T07:12:11.008Z,0.50
2022-12-22T07:14:37.496Z,0.43
2022-12-22T07:17:04.001Z,0.82
2022-12-22T07:19:30.387Z,0.50
2022-12-22T07:21:56.830Z,0.50
2022-12-22T07:24:25.795Z,0.40
2022-12-22T07:26:52.895Z,0.50
2022-12-22T07:29:19.265Z,0.65
2022-12-22T07:31:45.818Z,0.70
2022-12-22T07:34:12.566Z,0.60
2022-12-22T07:36:39.144Z,0.60
2022-12-22T07:39:05.525Z,0.63
2022-12-22T07:41:50.469Z,0.73
2022-12-22T07:44:16.915Z,0.70
2022-12-22T07:46:43.398Z,1.00
2022-12-22T07:49:29.820Z,0.80
2022-12-22T07:51:57.693Z,0.80
2022-12-22T07:54:24.596Z,0.90
2022-12-22T07:56:51.220Z,0.80
2022-12-22T07:59:18.001Z,0.80
2022-12-22T08:01:45.573Z,1.13
2022-12-22T08:04:14.348Z,1.00
2022-12-22T08:06:41.051Z,1.00
2022-12-22T08:09:09.197Z,1.30
2022-12-22T08:11:36.021Z,1.13
2022-12-22T08:14:02.572Z,1.30
2022-12-22T08:16:29.587Z,1.20
2022-12-22T08:18:56.435Z,1.30
2022-12-22T08:21:23.196Z,1.60
2022-12-22T08:23:49.819Z,1.40
2022-12-22T08:26:21.991Z,1.40
2022-12-22T08:28:52.273Z,1.40
2022-12-22T08:31:19.397Z,1.70
2022-12-22T08:33:47.208Z,1.83
2022-12-22T08:36:14.493Z,1.50
2022-12-22T08:38:42.712Z,1.45
2022-12-22T08:41:12.514Z,1.63
2022-12-22T08:43:38.852Z,2.08
2022-12-22T08:46:05.593Z,2.10
2022-12-22T08:48:32.402Z,2.10
2022-12-22T08:50:58.905Z,2.75
2022-12-22T08:54:03.189Z,2.20
2022-12-22T08:56:11.753Z,2.85
2022-12-22T08:58:40.092Z,3.40
2022-12-22T09:01:06.868Z,3.25
2022-12-22T09:03:33.466Z,3.10
2022-12-22T09:06:01.443Z,4.03
2022-12-22T09:08:27.847Z,4.45
2022-12-22T09:10:54.252Z,4.55
2022-12-22T09:13:20.650Z,4.25
2022-12-22T09:15:47.024Z,4.30
2022-12-22T09:18:13.423Z,4.85
2022-12-22T09:20:39.764Z,5.03
2022-12-22T09:23:06.165Z,4.75
2022-12-22T09:25:35.033Z,4.53
2022-12-22T09:28:01.459Z,5.15
2022-12-22T09:30:27.920Z,5.32
2022-12-22T09:32:54.828Z,6.20
2022-12-22T09:35:21.213Z,7.57
2022-12-22T09:37:49.060Z,7.53
2022-12-22T09:40:15.625Z,8.88
2022-12-22T09:42:42.127Z,8.85
2022-12-22T09:45:19.894Z,10.38
2022-12-22T09:47:53.466Z,9.43
2022-12-22T09:50:23.525Z,7.32
2022-12-22T09:52:54.933Z,8.05
2022-12-22T09:55:24.406Z,6.63
2022-12-22T09:57:51.907Z,7.45
2022-12-22T10:00:22.043Z,6.35
2022-12-22T10:03:07.469Z,6.45
2022-12-22T10:05:42.797Z,7.18
2022-12-22T10:08:15.421Z,7.03
2022-12-22T10:10:42.235Z,6.93
2022-12-22T10:13:17.155Z,7.20
2022-12-22T10:15:44.017Z,8.95
2022-12-22T10:18:15.263Z,9.98
2022-12-22T10:20:46.062Z,8.50
2022-12-22T10:23:28.003Z,9.20
2022-12-22T10:28:51.792Z,9.20
2022-12-22T10:31:27.805Z,8.90
2022-12-22T10:33:56.493Z,8.50
2022-12-22T10:36:32.122Z,10.10
2022-12-22T10:39:02.311Z,11.38
2022-12-22T10:41:32.557Z,12.68
2022-12-22T10:44:07.495Z,12.23
2022-12-22T10:46:38.275Z,13.05
2022-12-22T10:52:15.171Z,12.43
2022-12-22T10:54:44.028Z,14.40
2022-12-22T10:57:13.497Z,13.32
2022-12-22T10:59:56.632Z,13.40
2022-12-22T11:02:38.160Z,14.73
2022-12-22T11:05:13.849Z,13.20
2022-12-22T11:07:44.747Z,14.07
2022-12-22T11:10:14.169Z,14.52
2022-12-22T11:12:57.505Z,15.43
2022-12-22T11:15:37.260Z,15.50
2022-12-22T11:18:34.287Z,13.80
2022-12-22T11:21:24.361Z,13.45
2022-12-22T11:24:15.958Z,12.65
2022-12-22T11:26:54.641Z,11.32
2022-12-22T11:29:33.296Z,9.77
2022-12-22T11:32:05.825Z,9.48
2022-12-22T11:34:50.344Z,9.90
2022-12-22T11:37:50.157Z,10.43
2022-12-22T11:40:31.907Z,10.75
2022-12-22T11:43:39.955Z,11.15
2022-12-22T11:46:38.466Z,10.30
2022-12-22T11:49:23.923Z,10.43
2022-12-22T11:52:15.260Z,10.27
2022-12-22T11:55:12.949Z,9.93
2022-12-22T11:57:39.330Z,9.32
2022-12-22T12:00:10.947Z,9.18
2022-12-22T12:02:52.607Z,9.52
2022-12-22T12:05:37.678Z,10.32
2022-12-22T12:08:40.679Z,9.95
2022-12-22T12:11:20.211Z,7.65
2022-12-22T12:14:28.274Z,9.82
2022-12-22T12:16:58.665Z,8.93
2022-12-22T12:19:45.477Z,8.68
2022-12-22T12:22:39.861Z,8.48
2022-12-22T12:25:23.764Z,8.10
2022-12-22T12:30:39.884Z,8.73
2022-12-22T12:33:48.079Z,9.27
2022-12-22T12:36:28.411Z,8.10
2022-12-22T12:39:08.061Z,7.75
2022-12-22T12:41:40.889Z,8.43
2022-12-22T12:44:13.174Z,9.27
2022-12-22T12:46:52.327Z,8.73
2022-12-22T12:49:55.304Z,8.35
2022-12-22T12:52:40.045Z,8.48
2022-12-22T12:55:34.669Z,8.02
2022-12-22T12:58:03.737Z,8.70
2022-12-22T13:00:33.463Z,8.00
2022-12-22T13:03:30.492Z,7.57
2022-12-22T13:06:03.236Z,7.53
2022-12-22T13:08:31.034Z,7.93
2022-12-22T13:10:57.317Z,8.00
2022-12-22T13:13:23.803Z,8.20
2022-12-22T13:16:10.230Z,8.13
2022-12-22T13:18:49.509Z,8.55
2022-12-22T13:21:54.328Z,8.60
2022-12-22T13:24:27.316Z,8.02
2022-12-22T13:27:00.384Z,7.57
2022-12-22T13:29:47.183Z,7.65
2022-12-22T13:32:30.285Z,7.32
2022-12-22T13:35:34.630Z,8.05
2022-12-22T13:40:39.477Z,6.90
2022-12-22T13:43:12.748Z,7.50
2022-12-22T13:45:52.191Z,7.63
2022-12-22T13:48:43.965Z,8.18
2022-12-22T13:51:20.455Z,6.78
2022-12-22T13:54:12.684Z,6.95
2022-12-22T13:56:48.333Z,6.93
2022-12-22T13:59:33.076Z,7.63
2022-12-22T14:02:15.461Z,7.00
2022-12-22T14:04:51.739Z,7.70
2022-12-22T14:07:20.213Z,7.10
2022-12-22T14:09:48.690Z,7.68
2022-12-22T14:12:22.556Z,7.07
2022-12-22T14:14:51.941Z,6.85
2022-12-22T14:17:44.611Z,7.38
2022-12-22T14:20:19.313Z,7.03
2022-12-22T14:22:53.065Z,6.32
2022-12-22T14:25:25.050Z,8.38
2022-12-22T14:27:54.437Z,7.78
2022-12-22T14:30:23.784Z,7.15
2022-12-22T14:32:56.036Z,7.35
2022-12-22T14:35:26.338Z,7.63
2022-12-22T14:37:54.710Z,7.65
2022-12-22T14:40:33.653Z,7.55
2022-12-22T14:43:05.446Z,7.80
2022-12-22T14:45:32.431Z,6.70
2022-12-22T14:47:59.225Z,7.68
2022-12-22T14:50:27.989Z,7.07
2022-12-22T14:52:56.860Z,6.93
2022-12-22T14:55:29.788Z,5.43
2022-12-22T14:58:06.571Z,5.78
2022-12-22T15:00:47.261Z,5.72
2022-12-22T15:03:25.615Z,6.60
2022-12-22T15:05:53.131Z,7.20
2022-12-22T15:08:39.858Z,7.78
2022-12-22T15:11:12.397Z,6.15
2022-12-22T15:13:38.974Z,9.15
2022-12-22T15:16:05.716Z,22.45
2022-12-22T15:18:32.781Z,12.57
2022-12-22T15:20:59.234Z,9.15
2022-12-22T15:23:25.617Z,13.70
2022-12-22T15:25:51.969Z,13.43
2022-12-22T15:28:18.393Z,15.43
2022-12-22T15:30:45.060Z,18.45
2022-12-22T15:33:16.843Z,19.85
2022-12-22T15:38:14.022Z,10.02
2022-12-22T15:40:40.429Z,8.20
2022-12-22T15:43:17.321Z,7.28
2022-12-22T15:45:53.991Z,8.20
2022-12-22T15:48:33.293Z,7.40
2022-12-22T15:51:02.218Z,8.00
2022-12-22T15:53:29.258Z,7.28
2022-12-22T15:55:58.268Z,7.32
2022-12-22T15:58:29.077Z,7.15
2022-12-22T16:00:56.018Z,9.38
2022-12-22T16:03:22.634Z,8.30
2022-12-22T16:05:50.368Z,7.68
2022-12-22T16:08:20.368Z,8.00
2022-12-22T16:10:48.449Z,7.53
2022-12-22T16:13:16.378Z,6.32
2022-12-22T16:15:42.755Z,6.03
2022-12-22T16:18:12.866Z,8.57
2022-12-22T16:20:42.119Z,7.35
2022-12-22T16:23:16.512Z,6.43
2022-12-22T16:25:44.794Z,5.40
2022-12-22T16:28:17.606Z,5.05
2022-12-22T16:30:44.199Z,4.75
2022-12-22T16:33:13.873Z,4.18
2022-12-22T16:35:41.272Z,3.65
2022-12-22T16:38:11.708Z,3.63
2022-12-22T16:40:52.936Z,4.93
2022-12-22T16:43:48.981Z,3.67
2022-12-22T16:46:18.671Z,3.92
2022-12-22T16:48:47.344Z,6.25
2022-12-22T16:51:26.812Z,4.93
2022-12-22T16:53:53.505Z,4.68
2022-12-22T16:56:26.533Z,4.78
2022-12-22T16:58:52.995Z,5.65
2022-12-22T17:01:38.923Z,3.95
2022-12-22T17:04:28.717Z,3.20
2022-12-22T17:06:58.296Z,4.07
2022-12-22T17:09:32.399Z,14.57
2022-12-22T17:12:01.047Z,8.23
2022-12-22T17:14:34.497Z,8.68
2022-12-22T17:17:00.877Z,6.05
2022-12-22T17:19:27.376Z,7.05
2022-12-22T17:21:55.708Z,5.13
2022-12-22T17:24:28.151Z,5.45
2022-12-22T17:26:59.309Z,4.22
2022-12-22T17:29:25.842Z,3.70
2022-12-22T17:31:56.151Z,3.13
2022-12-22T17:34:22.674Z,3.10
2022-12-22T17:36:49.972Z,2.85
2022-12-22T17:39:20.956Z,3.25
2022-12-22T17:41:56.361Z,2.85
2022-12-22T17:44:25.207Z,3.40
2022-12-22T17:46:51.841Z,3.45
2022-12-22T17:49:19.895Z,3.28
2022-12-22T17:51:46.849Z,3.92
2022-12-22T17:54:25.704Z,3.35
2022-12-22T17:56:58.154Z,4.30
2022-12-22T17:59:24.510Z,7.97
2022-12-22T18:01:50.992Z,6.15
2022-12-22T18:04:18.557Z,5.78
2022-12-22T18:06:45.477Z,3.58
2022-12-22T18:09:23.560Z,4.55
2022-12-22T18:11:50.798Z,4.00
2022-12-22T18:14:18.469Z,8.23
2022-12-22T18:16:45.080Z,9.98
2022-12-22T18:19:12.708Z,9.40
2022-12-22T18:21:39.576Z,11.68
2022-12-22T18:24:06.743Z,7.85
2022-12-22T18:26:33.239Z,6.43
2022-12-22T18:28:59.907Z,4.78
2022-12-22T18:31:26.521Z,13.32
2022-12-22T18:33:53.462Z,8.50
2022-12-22T18:36:29.645Z,4.72
2022-12-22T18:38:57.619Z,9.93
2022-12-22T18:41:25.795Z,3.75
2022-12-22T18:43:52.565Z,3.47
2022-12-22T18:46:19.860Z,3.22
2022-12-22T18:48:47.693Z,2.97
2022-12-22T18:51:22.390Z,7.85
2022-12-22T18:53:50.448Z,15.70
2022-12-22T18:56:17.029Z,13.73
2022-12-22T18:58:43.489Z,19.00
2022-12-22T19:01:19.264Z,10.55
2022-12-22T19:03:46.069Z,12.88
2022-12-22T19:06:12.861Z,12.50
2022-12-22T19:08:45.380Z,14.13
2022-12-22T19:11:13.105Z,9.02
2022-12-22T19:13:44.863Z,15.48
2022-12-22T19:16:17.707Z,12.82
2022-12-22T19:18:45.413Z,9.85
2022-12-22T19:21:18.776Z,13.32
2022-12-22T19:23:45.756Z,11.35
2022-12-22T19:26:23.399Z,19.50
2022-12-22T19:28:54.086Z,12.48
2022-12-22T19:31:26.985Z,23.50
2022-12-22T19:33:55.644Z,16.15
2022-12-22T19:36:27.977Z,10.85
2022-12-22T19:39:03.526Z,5.70
2022-12-22T19:41:42.974Z,6.72
2022-12-22T19:44:16.561Z,6.82
2022-12-22T19:46:42.975Z,12.18
2022-12-22T19:49:18.748Z,16.48
2022-12-22T19:51:45.231Z,5.10
2022-12-22T19:54:11.789Z,6.70
2022-12-22T19:56:38.200Z,7.40
2022-12-22T19:59:11.366Z,4.93
2022-12-22T20:01:39.013Z,5.30
2022-12-22T20:04:05.463Z,6.65
2022-12-22T20:06:33.977Z,6.07
2022-12-22T20:09:03.059Z,4.70
2022-12-22T20:11:29.570Z,4.95
2022-12-22T20:13:56.610Z,3.85
2022-12-22T20:16:23.238Z,3.63
2022-12-22T20:18:49.733Z,3.88
2022-12-22T20:21:24.442Z,2.67
2022-12-22T20:23:53.096Z,4.28
2022-12-22T20:26:23.065Z,4.30
2022-12-22T20:28:52.327Z,4.45
2022-12-22T20:31:21.050Z,4.63
2022-12-22T20:33:49.266Z,3.15
2022-12-22T20:36:27.648Z,4.53
2022-12-22T20:38:58.000Z,5.05
2022-12-22T20:41:25.555Z,5.32
2022-12-22T20:43:53.446Z,4.45
2022-12-22T20:46:23.541Z,3.75
2022-12-22T20:48:54.481Z,7.13
2022-12-22T20:51:21.738Z,15.18
2022-12-22T20:53:48.564Z,12.57
2022-12-22T20:56:37.508Z,14.25
2022-12-22T20:59:19.211Z,9.15
2022-12-22T21:01:47.042Z,6.90
2022-12-22T21:04:14.887Z,6.85
2022-12-22T21:06:53.646Z,3.33
2022-12-22T21:09:20.545Z,3.72
2022-12-22T21:11:47.160Z,3.05
2022-12-22T21:14:13.684Z,2.83
2022-12-22T21:16:41.095Z,2.92
2022-12-22T21:19:07.907Z,2.83
2022-12-22T21:21:34.528Z,3.20
2022-12-22T21:24:00.909Z,2.72
2022-12-22T21:26:31.757Z,2.58
2022-12-22T21:29:00.954Z,3.17
2022-12-22T21:31:27.518Z,2.85
2022-12-22T21:33:54.001Z,3.47
2022-12-22T21:36:26.669Z,3.25
2022-12-22T21:38:56.722Z,2.70
2022-12-22T21:41:41.900Z,3.15
2022-12-22T21:44:08.514Z,2.80
2022-12-22T21:46:36.265Z,3.13
2022-12-22T21:49:02.722Z,3.30
2022-12-22T21:51:29.084Z,2.63
2022-12-22T21:53:55.534Z,2.95
2022-12-22T21:56:22.026Z,3.80
2022-12-22T21:58:48.531Z,3.13
2022-12-22T22:01:15.773Z,2.53
2022-12-22T22:03:42.647Z,2.97
2022-12-22T22:06:10.296Z,2.95
2022-12-22T22:08:36.647Z,3.50
2022-12-22T22:11:03.004Z,2.63
2022-12-22T22:13:29.384Z,2.63
2022-12-22T22:15:55.822Z,2.58
2022-12-22T22:18:22.249Z,2.70
2022-12-22T22:20:50.975Z,2.40
2022-12-22T22:23:17.440Z,2.80
2022-12-22T22:25:45.978Z,2.80
2022-12-22T22:28:12.474Z,2.42
2022-12-22T22:30:41.974Z,3.03
2022-12-22T22:33:08.406Z,3.20
2022-12-22T22:35:34.764Z,3.00
2022-12-22T22:38:01.131Z,2.95
2022-12-22T22:40:27.947Z,3.42
2022-12-22T22:42:55.596Z,3.70
2022-12-22T22:45:24.456Z,3.80
2022-12-22T22:47:52.547Z,3.72
2022-12-22T22:50:20.919Z,3.15
2022-12-22T22:52:49.482Z,4.80
2022-12-22T22:55:16.235Z,3.13
2022-12-22T22:57:42.931Z,3.33
2022-12-22T23:00:12.758Z,3.38
2022-12-22T23:02:39.628Z,2.90
2022-12-22T23:05:06.544Z,3.50
2022-12-22T23:07:33.644Z,4.75
2022-12-22T23:10:00.035Z,3.30
2022-12-22T23:12:26.706Z,3.63
2022-12-22T23:14:54.106Z,3.35
2022-12-22T23:17:20.563Z,2.92
2022-12-22T23:19:47.010Z,3.30
2022-12-22T23:22:15.391Z,3.10
2022-12-22T23:24:41.862Z,2.80
2022-12-22T23:27:08.228Z,3.85
2022-12-22T23:29:35.991Z,3.70
2022-12-22T23:32:02.427Z,2.80
2022-12-22T23:34:28.840Z,3.53
2022-12-22T23:36:55.249Z,2.83
2022-12-22T23:39:21.778Z,2.78
2022-12-22T23:41:48.220Z,2.88
2022-12-22T23:44:14.677Z,3.28
2022-12-22T23:46:41.251Z,2.97
2022-12-22T23:49:11.275Z,2.53
2022-12-22T23:51:37.873Z,2.85
2022-12-22T23:54:05.526Z,2.70
2022-12-22T23:56:32.268Z,2.28
2022-12-22T23:58:58.736Z,2.67
